sensor_id;sensor_type;location;lat;lon;timestamp;P1;durP1;ratioP1;P2;durP2;ratioP2
61322;SDS011;47203;48.428;11.974;2023-09-07T12:30:36;3.15;;;1.55;;
61322;SDS011;47203;48.428;11.974;2023-09-07T12:32:41;3.13;;;1.75;;
61322;SDS011;47203;48.428;11.974;2023-09-07T12:34:47;3.67;;;1.70;;
61322;SDS011;47203;48.428;11.974;2023-09-07T12:36:55;2.70;;;1.45;;
61322;SDS011;47203;48.428;11.974;2023-09-07T12:39:01;2.70;;;1.90;;
61322;SDS011;47203;48.428;11.974;2023-09-07T12:41:07;3.45;;;1.90;;
61322;SDS011;47203;48.428;11.974;2023-09-07T12:43:12;1.70;;;1.48;;
61322;SDS011;47203;48.428;11.974;2023-09-07T12:45:20;2.10;;;1.90;;
61322;SDS011;47203;48.428;11.974;2023-09-07T12:47:25;2.40;;;1.90;;
61322;SDS011;47203;48.428;11.974;2023-09-07T12:49:27;2.55;;;1.95;;
61322;SDS011;47203;48.428;11.974;2023-09-07T12:51:32;3.30;;;1.75;;
61322;SDS011;47203;48.428;11.974;2023-09-07T12:53:37;2.97;;;1.98;;
61322;SDS011;47203;48.428;11.974;2023-09-07T12:55:42;3.63;;;1.92;;
61322;SDS011;47203;48.428;11.974;2023-09-07T12:57:48;2.70;;;1.77;;
61322;SDS011;47203;48.428;11.974;2023-09-07T12:59:53;2.35;;;1.80;;
61322;SDS011;47203;48.428;11.974;2023-09-07T13:02:00;2.72;;;1.88;;
61322;SDS011;47203;48.428;11.974;2023-09-07T13:04:05;2.53;;;1.98;;
61322;SDS011;47203;48.428;11.974;2023-09-07T13:06:13;3.58;;;2.20;;
61322;SDS011;47203;48.428;11.974;2023-09-07T13:08:19;3.03;;;2.17;;
61322;SDS011;47203;48.428;11.974;2023-09-07T13:10:24;2.95;;;2.13;;
61322;SDS011;47203;48.428;11.974;2023-09-07T13:12:29;3.60;;;2.00;;
61322;SDS011;47203;48.428;11.974;2023-09-07T13:14:35;2.83;;;2.13;;
61322;SDS011;47203;48.428;11.974;2023-09-07T13:16:40;2.13;;;1.77;;
61322;SDS011;47203;48.428;11.974;2023-09-07T13:18:48;3.05;;;2.45;;
61322;SDS011;47203;48.428;11.974;2023-09-07T13:20:53;2.70;;;2.00;;
61322;SDS011;47203;48.428;11.974;2023-09-07T13:23:01;2.80;;;2.10;;
61322;SDS011;47203;48.428;11.974;2023-09-07T13:25:06;3.90;;;2.42;;
61322;SDS011;47203;48.428;11.974;2023-09-07T13:27:12;3.05;;;2.45;;
61322;SDS011;47203;48.428;11.974;2023-09-07T13:29:17;2.55;;;2.10;;
61322;SDS011;47203;48.428;11.974;2023-09-07T13:31:22;3.47;;;2.15;;
61322;SDS011;47203;48.428;11.974;2023-09-07T13:33:27;3.13;;;2.10;;
61322;SDS011;47203;48.428;11.974;2023-09-07T13:35:35;3.58;;;2.25;;
61322;SDS011;47203;48.428;11.974;2023-09-07T13:37:41;3.60;;;2.63;;
61322;SDS011;47203;48.428;11.974;2023-09-07T13:39:46;2.70;;;2.20;;
61322;SDS011;47203;48.428;11.974;2023-09-07T13:41:51;5.35;;;2.33;;
61322;SDS011;47203;48.428;11.974;2023-09-07T13:43:56;3.85;;;2.30;;
61322;SDS011;47203;48.428;11.974;2023-09-07T13:46:01;3.92;;;2.40;;
61322;SDS011;47203;48.428;11.974;2023-09-07T13:48:06;3.60;;;2.58;;
61322;SDS011;47203;48.428;11.974;2023-09-07T13:50:12;3.45;;;2.40;;
61322;SDS011;47203;48.428;11.974;2023-09-07T13:52:19;3.00;;;2.20;;
61322;SDS011;47203;48.428;11.974;2023-09-07T13:54:24;3.50;;;2.50;;
61322;SDS011;47203;48.428;11.974;2023-09-07T13:56:31;2.53;;;2.05;;
61322;SDS011;47203;48.428;11.974;2023-09-07T13:58:37;4.38;;;2.97;;
61322;SDS011;47203;48.428;11.974;2023-09-07T14:00:43;5.10;;;2.42;;
61322;SDS011;47203;48.428;11.974;2023-09-07T14:02:48;3.00;;;2.10;;
61322;SDS011;47203;48.428;11.974;2023-09-07T14:04:54;3.70;;;2.42;;
61322;SDS011;47203;48.428;11.974;2023-09-07T14:06:57;3.83;;;2.50;;
61322;SDS011;47203;48.428;11.974;2023-09-07T14:09:04;2.55;;;2.20;;
61322;SDS011;47203;48.428;11.974;2023-09-07T14:11:09;3.00;;;2.20;;
61322;SDS011;47203;48.428;11.974;2023-09-07T14:13:14;2.85;;;2.25;;
61322;SDS011;47203;48.428;11.974;2023-09-07T14:15:19;3.97;;;2.65;;
61322;SDS011;47203;48.428;11.974;2023-09-07T14:17:25;3.58;;;2.65;;
61322;SDS011;47203;48.428;11.974;2023-09-07T14:19:30;4.35;;;2.17;;
61322;SDS011;47203;48.428;11.974;2023-09-07T14:21:35;3.20;;;2.53;;
61322;SDS011;47203;48.428;11.974;2023-09-07T14:23:40;4.18;;;2.38;;
61322;SDS011;47203;48.428;11.974;2023-09-07T14:25:47;6.07;;;2.33;;
61322;SDS011;47203;48.428;11.974;2023-09-07T14:27:52;3.90;;;2.50;;
61322;SDS011;47203;48.428;11.974;2023-09-07T14:29:57;3.80;;;2.70;;
61322;SDS011;47203;48.428;11.974;2023-09-07T14:32:03;3.13;;;2.20;;
61322;SDS011;47203;48.428;11.974;2023-09-07T14:34:08;4.18;;;2.60;;
61322;SDS011;47203;48.428;11.974;2023-09-07T14:36:13;4.10;;;2.30;;
61322;SDS011;47203;48.428;11.974;2023-09-07T14:38:19;3.53;;;2.17;;
61322;SDS011;47203;48.428;11.974;2023-09-07T14:40:25;3.85;;;2.35;;
61322;SDS011;47203;48.428;11.974;2023-09-07T14:42:33;4.20;;;2.35;;
61322;SDS011;47203;48.428;11.974;2023-09-07T14:44:38;3.28;;;2.40;;
61322;SDS011;47203;48.428;11.974;2023-09-07T14:46:43;3.58;;;2.38;;
61322;SDS011;47203;48.428;11.974;2023-09-07T14:48:51;4.57;;;2.60;;
61322;SDS011;47203;48.428;11.974;2023-09-07T14:50:56;3.55;;;2.50;;
61322;SDS011;47203;48.428;11.974;2023-09-07T14:53:01;3.05;;;2.30;;
61322;SDS011;47203;48.428;11.974;2023-09-07T14:55:08;5.35;;;2.60;;
61322;SDS011;47203;48.428;11.974;2023-09-07T14:57:13;3.25;;;2.53;;
61322;SDS011;47203;48.428;11.974;2023-09-07T14:59:22;3.20;;;2.45;;
61322;SDS011;47203;48.428;11.974;2023-09-07T15:01:28;2.42;;;2.10;;
61322;SDS011;47203;48.428;11.974;2023-09-07T15:03:33;3.33;;;2.05;;
61322;SDS011;47203;48.428;11.974;2023-09-07T15:05:42;5.00;;;2.58;;
61322;SDS011;47203;48.428;11.974;2023-09-07T15:07:47;7.50;;;2.60;;
61322;SDS011;47203;48.428;11.974;2023-09-07T15:09:52;3.58;;;2.67;;
61322;SDS011;47203;48.428;11.974;2023-09-07T15:11:58;3.83;;;2.50;;
61322;SDS011;47203;48.428;11.974;2023-09-07T15:14:03;3.65;;;2.70;;
61322;SDS011;47203;48.428;11.974;2023-09-07T15:16:11;3.17;;;2.38;;
61322;SDS011;47203;48.428;11.974;2023-09-07T15:18:16;4.20;;;2.35;;
61322;SDS011;47203;48.428;11.974;2023-09-07T15:20:27;10.57;;;2.40;;
61322;SDS011;47203;48.428;11.974;2023-09-07T15:22:34;3.30;;;2.30;;
61322;SDS011;47203;48.428;11.974;2023-09-07T15:24:40;3.28;;;2.30;;
61322;SDS011;47203;48.428;11.974;2023-09-07T15:26:47;3.72;;;2.30;;
61322;SDS011;47203;48.428;11.974;2023-09-07T15:28:54;3.85;;;2.65;;
61322;SDS011;47203;48.428;11.974;2023-09-07T15:31:13;3.47;;;2.28;;
61322;SDS011;47203;48.428;11.974;2023-09-07T15:33:18;3.33;;;2.63;;
61322;SDS011;47203;48.428;11.974;2023-09-07T15:35:26;4.13;;;2.65;;
61322;SDS011;47203;48.428;11.974;2023-09-07T15:37:31;3.50;;;2.50;;
61322;SDS011;47203;48.428;11.974;2023-09-07T15:39:36;3.72;;;2.70;;
61322;SDS011;47203;48.428;11.974;2023-09-07T15:41:44;4.15;;;2.30;;
61322;SDS011;47203;48.428;11.974;2023-09-07T15:43:49;4.07;;;2.45;;
61322;SDS011;47203;48.428;11.974;2023-09-07T15:45:55;3.88;;;2.40;;
61322;SDS011;47203;48.428;11.974;2023-09-07T15:48:02;5.05;;;2.22;;
61322;SDS011;47203;48.428;11.974;2023-09-07T15:50:09;3.42;;;2.47;;
61322;SDS011;47203;48.428;11.974;2023-09-07T15:52:17;3.80;;;2.50;;
61322;SDS011;47203;48.428;11.974;2023-09-07T15:54:20;3.63;;;2.30;;
61322;SDS011;47203;48.428;11.974;2023-09-07T15:56:25;3.65;;;2.70;;
61322;SDS011;47203;48.428;11.974;2023-09-07T15:58:30;3.15;;;2.60;;
61322;SDS011;47203;48.428;11.974;2023-09-07T16:00:33;3.72;;;2.55;;
61322;SDS011;47203;48.428;11.974;2023-09-07T16:02:38;3.38;;;2.60;;
61322;SDS011;47203;48.428;11.974;2023-09-07T16:04:44;4.45;;;3.08;;
61322;SDS011;47203;48.428;11.974;2023-09-07T16:06:49;3.53;;;2.78;;
61322;SDS011;47203;48.428;11.974;2023-09-07T16:08:54;3.70;;;2.80;;
61322;SDS011;47203;48.428;11.974;2023-09-07T16:10:59;3.40;;;2.38;;
61322;SDS011;47203;48.428;11.974;2023-09-07T16:13:06;4.00;;;2.50;;
61322;SDS011;47203;48.428;11.974;2023-09-07T16:15:12;4.15;;;2.88;;
61322;SDS011;47203;48.428;11.974;2023-09-07T16:17:23;2.97;;;2.50;;
61322;SDS011;47203;48.428;11.974;2023-09-07T16:19:29;4.43;;;2.80;;
61322;SDS011;47203;48.428;11.974;2023-09-07T16:21:37;4.43;;;2.80;;
61322;SDS011;47203;48.428;11.974;2023-09-07T16:23:44;4.00;;;2.35;;
61322;SDS011;47203;48.428;11.974;2023-09-07T16:25:50;9.80;;;2.92;;
61322;SDS011;47203;48.428;11.974;2023-09-07T16:27:59;3.60;;;2.72;;
61322;SDS011;47203;48.428;11.974;2023-09-07T16:30:05;3.45;;;2.55;;
61322;SDS011;47203;48.428;11.974;2023-09-07T16:32:12;5.43;;;2.63;;
61322;SDS011;47203;48.428;11.974;2023-09-07T16:34:18;3.40;;;2.28;;
61322;SDS011;47203;48.428;11.974;2023-09-07T16:36:24;3.40;;;2.40;;
61322;SDS011;47203;48.428;11.974;2023-09-07T16:38:32;3.35;;;2.53;;
61322;SDS011;47203;48.428;11.974;2023-09-07T16:40:37;4.10;;;2.80;;
61322;SDS011;47203;48.428;11.974;2023-09-07T16:42:43;4.05;;;2.70;;
61322;SDS011;47203;48.428;11.974;2023-09-07T16:44:50;3.60;;;2.45;;
61322;SDS011;47203;48.428;11.974;2023-09-07T16:46:55;4.20;;;2.30;;
61322;SDS011;47203;48.428;11.974;2023-09-07T16:49:01;3.83;;;2.30;;
61322;SDS011;47203;48.428;11.974;2023-09-07T16:51:06;3.38;;;2.35;;
61322;SDS011;47203;48.428;11.974;2023-09-07T16:53:11;4.32;;;2.58;;
61322;SDS011;47203;48.428;11.974;2023-09-07T16:55:18;4.13;;;3.08;;
61322;SDS011;47203;48.428;11.974;2023-09-07T16:57:23;4.65;;;2.58;;
61322;SDS011;47203;48.428;11.974;2023-09-07T16:59:26;4.65;;;2.63;;
61322;SDS011;47203;48.428;11.974;2023-09-07T17:01:52;5.47;;;2.80;;
61322;SDS011;47203;48.428;11.974;2023-09-07T17:03:58;4.28;;;2.92;;
61322;SDS011;47203;48.428;11.974;2023-09-07T17:06:03;4.22;;;2.90;;
61322;SDS011;47203;48.428;11.974;2023-09-07T17:08:05;4.63;;;2.70;;
61322;SDS011;47203;48.428;11.974;2023-09-07T17:10:10;2.97;;;2.50;;
61322;SDS011;47203;48.428;11.974;2023-09-07T17:12:18;7.13;;;2.72;;
61322;SDS011;47203;48.428;11.974;2023-09-07T17:14:24;4.68;;;2.50;;
61322;SDS011;47203;48.428;11.974;2023-09-07T17:16:29;4.00;;;2.60;;
61322;SDS011;47203;48.428;11.974;2023-09-07T17:18:35;5.47;;;2.60;;
61322;SDS011;47203;48.428;11.974;2023-09-07T17:20:40;3.67;;;2.72;;
61322;SDS011;47203;48.428;11.974;2023-09-07T17:22:45;5.50;;;2.67;;
61322;SDS011;47203;48.428;11.974;2023-09-07T17:24:50;4.05;;;2.63;;
61322;SDS011;47203;48.428;11.974;2023-09-07T17:29:01;4.43;;;2.63;;
61322;SDS011;47203;48.428;11.974;2023-09-07T17:31:11;6.15;;;3.38;;
61322;SDS011;47203;48.428;11.974;2023-09-07T17:33:17;5.47;;;2.45;;
61322;SDS011;47203;48.428;11.974;2023-09-07T17:35:22;3.80;;;3.08;;
61322;SDS011;47203;48.428;11.974;2023-09-07T17:37:28;4.70;;;2.95;;
61322;SDS011;47203;48.428;11.974;2023-09-07T17:39:34;7.10;;;3.28;;
61322;SDS011;47203;48.428;11.974;2023-09-07T17:41:39;4.43;;;2.75;;
61322;SDS011;47203;48.428;11.974;2023-09-07T17:43:44;4.47;;;2.90;;
61322;SDS011;47203;48.428;11.974;2023-09-07T17:45:52;4.60;;;3.05;;
61322;SDS011;47203;48.428;11.974;2023-09-07T17:47:57;5.40;;;2.90;;
61322;SDS011;47203;48.428;11.974;2023-09-07T17:50:02;4.45;;;2.65;;
61322;SDS011;47203;48.428;11.974;2023-09-07T17:52:08;5.28;;;3.08;;
61322;SDS011;47203;48.428;11.974;2023-09-07T17:54:14;7.95;;;3.05;;
61322;SDS011;47203;48.428;11.974;2023-09-07T17:56:20;4.40;;;3.20;;
61322;SDS011;47203;48.428;11.974;2023-09-07T17:58:25;4.95;;;2.63;;
61322;SDS011;47203;48.428;11.974;2023-09-07T18:00:31;3.90;;;2.97;;
61322;SDS011;47203;48.428;11.974;2023-09-07T18:02:39;3.47;;;2.72;;
61322;SDS011;47203;48.428;11.974;2023-09-07T18:04:44;3.53;;;2.50;;
61322;SDS011;47203;48.428;11.974;2023-09-07T18:06:49;4.35;;;2.83;;
61322;SDS011;47203;48.428;11.974;2023-09-07T18:08:54;6.18;;;3.00;;
61322;SDS011;47203;48.428;11.974;2023-09-07T18:10:59;5.57;;;3.15;;
61322;SDS011;47203;48.428;11.974;2023-09-07T18:13:05;3.95;;;2.80;;
61322;SDS011;47203;48.428;11.974;2023-09-07T18:15:10;4.28;;;2.85;;
61322;SDS011;47203;48.428;11.974;2023-09-07T18:17:15;5.28;;;2.88;;
61322;SDS011;47203;48.428;11.974;2023-09-07T18:19:23;4.07;;;3.08;;
61322;SDS011;47203;48.428;11.974;2023-09-07T18:21:28;4.75;;;2.60;;
61322;SDS011;47203;48.428;11.974;2023-09-07T18:23:33;3.75;;;2.80;;
61322;SDS011;47203;48.428;11.974;2023-09-07T18:25:39;5.53;;;3.50;;
61322;SDS011;47203;48.428;11.974;2023-09-07T18:27:44;3.70;;;2.63;;
61322;SDS011;47203;48.428;11.974;2023-09-07T18:29:49;4.28;;;3.17;;
61322;SDS011;47203;48.428;11.974;2023-09-07T18:31:54;5.47;;;2.92;;
61322;SDS011;47203;48.428;11.974;2023-09-07T18:33:59;4.50;;;2.88;;
61322;SDS011;47203;48.428;11.974;2023-09-07T18:36:08;4.18;;;2.92;;
61322;SDS011;47203;48.428;11.974;2023-09-07T18:38:14;4.20;;;3.00;;
61322;SDS011;47203;48.428;11.974;2023-09-07T18:40:19;4.40;;;3.17;;
61322;SDS011;47203;48.428;11.974;2023-09-07T18:42:21;5.40;;;3.08;;
61322;SDS011;47203;48.428;11.974;2023-09-07T18:44:26;4.72;;;3.00;;
61322;SDS011;47203;48.428;11.974;2023-09-07T18:46:31;6.80;;;3.30;;
61322;SDS011;47203;48.428;11.974;2023-09-07T18:48:36;4.35;;;2.92;;
61322;SDS011;47203;48.428;11.974;2023-09-07T18:50:41;4.63;;;3.20;;
61322;SDS011;47203;48.428;11.974;2023-09-07T18:52:49;4.07;;;3.05;;
61322;SDS011;47203;48.428;11.974;2023-09-07T18:54:55;4.00;;;3.08;;
61322;SDS011;47203;48.428;11.974;2023-09-07T18:57:00;4.18;;;2.88;;
61322;SDS011;47203;48.428;11.974;2023-09-07T18:59:05;4.90;;;3.25;;
61322;SDS011;47203;48.428;11.974;2023-09-07T19:01:12;4.75;;;3.22;;
61322;SDS011;47203;48.428;11.974;2023-09-07T19:03:18;5.50;;;3.33;;
61322;SDS011;47203;48.428;11.974;2023-09-07T19:05:23;6.22;;;3.72;;
61322;SDS011;47203;48.428;11.974;2023-09-07T19:07:29;4.85;;;3.55;;
61322;SDS011;47203;48.428;11.974;2023-09-07T19:09:34;4.22;;;3.13;;
61322;SDS011;47203;48.428;11.974;2023-09-07T19:11:39;4.53;;;3.00;;
61322;SDS011;47203;48.428;11.974;2023-09-07T19:13:44;3.55;;;2.60;;
61322;SDS011;47203;48.428;11.974;2023-09-07T19:15:49;4.53;;;2.88;;
61322;SDS011;47203;48.428;11.974;2023-09-07T19:17:54;6.35;;;3.00;;
61322;SDS011;47203;48.428;11.974;2023-09-07T19:19:59;5.53;;;3.47;;
61322;SDS011;47203;48.428;11.974;2023-09-07T19:22:05;7.68;;;3.58;;
61322;SDS011;47203;48.428;11.974;2023-09-07T19:24:10;3.75;;;2.90;;
61322;SDS011;47203;48.428;11.974;2023-09-07T19:26:30;5.03;;;2.97;;
61322;SDS011;47203;48.428;11.974;2023-09-07T19:28:36;3.60;;;2.70;;
61322;SDS011;47203;48.428;11.974;2023-09-07T19:30:41;4.25;;;3.30;;
61322;SDS011;47203;48.428;11.974;2023-09-07T19:32:44;5.20;;;3.15;;
61322;SDS011;47203;48.428;11.974;2023-09-07T19:34:50;6.65;;;3.50;;
61322;SDS011;47203;48.428;11.974;2023-09-07T19:36:56;5.38;;;3.30;;
61322;SDS011;47203;48.428;11.974;2023-09-07T19:39:01;6.78;;;3.45;;
61322;SDS011;47203;48.428;11.974;2023-09-07T19:41:07;5.47;;;3.40;;
61322;SDS011;47203;48.428;11.974;2023-09-07T19:43:15;4.78;;;3.28;;
61322;SDS011;47203;48.428;11.974;2023-09-07T19:45:20;4.72;;;3.65;;
61322;SDS011;47203;48.428;11.974;2023-09-07T19:47:25;4.00;;;2.90;;
61322;SDS011;47203;48.428;11.974;2023-09-07T19:49:30;4.55;;;2.92;;
61322;SDS011;47203;48.428;11.974;2023-09-07T19:51:34;3.70;;;2.97;;
61322;SDS011;47203;48.428;11.974;2023-09-07T19:53:40;6.50;;;3.30;;
61322;SDS011;47203;48.428;11.974;2023-09-07T19:55:43;6.38;;;3.38;;
61322;SDS011;47203;48.428;11.974;2023-09-07T19:57:48;5.05;;;3.30;;
61322;SDS011;47203;48.428;11.974;2023-09-07T19:59:56;7.50;;;3.10;;
61322;SDS011;47203;48.428;11.974;2023-09-07T20:02:01;6.38;;;3.47;;
61322;SDS011;47203;48.428;11.974;2023-09-07T20:04:11;4.25;;;3.35;;
61322;SDS011;47203;48.428;11.974;2023-09-07T20:06:18;4.95;;;3.10;;
61322;SDS011;47203;48.428;11.974;2023-09-07T20:08:24;4.47;;;3.13;;
61322;SDS011;47203;48.428;11.974;2023-09-07T20:10:30;5.88;;;3.03;;
61322;SDS011;47203;48.428;11.974;2023-09-07T20:12:36;5.53;;;3.63;;
61322;SDS011;47203;48.428;11.974;2023-09-07T20:14:41;3.58;;;2.75;;
61322;SDS011;47203;48.428;11.974;2023-09-07T20:16:49;3.85;;;2.92;;
61322;SDS011;47203;48.428;11.974;2023-09-07T20:18:54;4.60;;;2.95;;
61322;SDS011;47203;48.428;11.974;2023-09-07T20:20:59;3.63;;;2.90;;
61322;SDS011;47203;48.428;11.974;2023-09-07T20:23:04;3.35;;;2.88;;
61322;SDS011;47203;48.428;11.974;2023-09-07T20:25:10;5.13;;;3.72;;
61322;SDS011;47203;48.428;11.974;2023-09-07T20:27:12;4.07;;;3.35;;
61322;SDS011;47203;48.428;11.974;2023-09-07T20:29:17;4.03;;;3.20;;
61322;SDS011;47203;48.428;11.974;2023-09-07T20:31:22;6.35;;;3.67;;
61322;SDS011;47203;48.428;11.974;2023-09-07T20:33:30;3.90;;;2.90;;
61322;SDS011;47203;48.428;11.974;2023-09-07T20:35:35;3.83;;;3.10;;
61322;SDS011;47203;48.428;11.974;2023-09-07T20:37:40;6.13;;;3.20;;
61322;SDS011;47203;48.428;11.974;2023-09-07T20:39:46;4.38;;;3.05;;
61322;SDS011;47203;48.428;11.974;2023-09-07T20:41:52;4.82;;;3.35;;
61322;SDS011;47203;48.428;11.974;2023-09-07T20:43:57;4.45;;;3.92;;
61322;SDS011;47203;48.428;11.974;2023-09-07T20:46:02;5.18;;;3.78;;
61322;SDS011;47203;48.428;11.974;2023-09-07T20:48:08;7.57;;;4.10;;
61322;SDS011;47203;48.428;11.974;2023-09-07T20:50:16;7.28;;;3.67;;
61322;SDS011;47203;48.428;11.974;2023-09-07T20:52:21;5.72;;;4.30;;
61322;SDS011;47203;48.428;11.974;2023-09-07T20:54:26;4.55;;;3.85;;
61322;SDS011;47203;48.428;11.974;2023-09-07T20:56:31;4.55;;;3.50;;
61322;SDS011;47203;48.428;11.974;2023-09-07T20:58:37;4.85;;;3.60;;
61322;SDS011;47203;48.428;11.974;2023-09-07T21:00:43;6.03;;;3.72;;
61322;SDS011;47203;48.428;11.974;2023-09-07T21:02:49;6.43;;;4.10;;
61322;SDS011;47203;48.428;11.974;2023-09-07T21:04:58;6.30;;;4.18;;
61322;SDS011;47203;48.428;11.974;2023-09-07T21:07:06;5.03;;;3.53;;
61322;SDS011;47203;48.428;11.974;2023-09-07T21:09:12;4.82;;;4.15;;
61322;SDS011;47203;48.428;11.974;2023-09-07T21:11:17;6.22;;;3.95;;
61322;SDS011;47203;48.428;11.974;2023-09-07T21:13:23;5.15;;;3.80;;
61322;SDS011;47203;48.428;11.974;2023-09-07T21:15:28;5.00;;;3.60;;
61322;SDS011;47203;48.428;11.974;2023-09-07T21:17:33;3.90;;;3.30;;
61322;SDS011;47203;48.428;11.974;2023-09-07T21:19:38;4.63;;;3.65;;
61322;SDS011;47203;48.428;11.974;2023-09-07T21:21:43;5.55;;;3.50;;
61322;SDS011;47203;48.428;11.974;2023-09-07T21:23:51;4.47;;;3.35;;
61322;SDS011;47203;48.428;11.974;2023-09-07T21:25:56;5.55;;;3.85;;
61322;SDS011;47203;48.428;11.974;2023-09-07T21:28:02;4.97;;;3.63;;
61322;SDS011;47203;48.428;11.974;2023-09-07T21:30:08;6.28;;;3.92;;
61322;SDS011;47203;48.428;11.974;2023-09-07T21:32:14;4.78;;;3.63;;
61322;SDS011;47203;48.428;11.974;2023-09-07T21:34:16;5.07;;;3.92;;
61322;SDS011;47203;48.428;11.974;2023-09-07T21:36:21;4.55;;;3.55;;
61322;SDS011;47203;48.428;11.974;2023-09-07T21:38:26;4.72;;;3.50;;
61322;SDS011;47203;48.428;11.974;2023-09-07T21:40:34;5.32;;;4.13;;
61322;SDS011;47203;48.428;11.974;2023-09-07T21:42:40;7.85;;;3.63;;
61322;SDS011;47203;48.428;11.974;2023-09-07T21:44:45;5.60;;;3.85;;
61322;SDS011;47203;48.428;11.974;2023-09-07T21:46:50;6.55;;;3.83;;
61322;SDS011;47203;48.428;11.974;2023-09-07T21:48:56;4.82;;;3.67;;
61322;SDS011;47203;48.428;11.974;2023-09-07T21:51:01;5.28;;;3.97;;
61322;SDS011;47203;48.428;11.974;2023-09-07T21:53:06;7.25;;;3.72;;
61322;SDS011;47203;48.428;11.974;2023-09-07T21:55:08;4.25;;;3.55;;
61322;SDS011;47203;48.428;11.974;2023-09-07T21:57:16;4.43;;;3.90;;
61322;SDS011;47203;48.428;11.974;2023-09-07T21:59:25;4.93;;;4.03;;
61322;SDS011;47203;48.428;11.974;2023-09-07T22:01:31;4.28;;;3.45;;
61322;SDS011;47203;48.428;11.974;2023-09-07T22:03:38;5.18;;;4.15;;
61322;SDS011;47203;48.428;11.974;2023-09-07T22:05:43;5.18;;;3.95;;
61322;SDS011;47203;48.428;11.974;2023-09-07T22:07:48;5.57;;;3.85;;
61322;SDS011;47203;48.428;11.974;2023-09-07T22:09:53;6.75;;;4.38;;
61322;SDS011;47203;48.428;11.974;2023-09-07T22:11:58;6.28;;;4.30;;
61322;SDS011;47203;48.428;11.974;2023-09-07T22:14:06;4.32;;;3.88;;
61322;SDS011;47203;48.428;11.974;2023-09-07T22:16:11;5.20;;;4.10;;
61322;SDS011;47203;48.428;11.974;2023-09-07T22:18:16;6.43;;;4.15;;
61322;SDS011;47203;48.428;11.974;2023-09-07T22:20:21;5.68;;;3.97;;
61322;SDS011;47203;48.428;11.974;2023-09-07T22:22:26;5.47;;;4.05;;
61322;SDS011;47203;48.428;11.974;2023-09-07T22:24:31;5.75;;;4.05;;
61322;SDS011;47203;48.428;11.974;2023-09-07T22:26:36;4.50;;;3.95;;
61322;SDS011;47203;48.428;11.974;2023-09-07T22:28:41;5.47;;;4.43;;
61322;SDS011;47203;48.428;11.974;2023-09-07T22:30:49;6.03;;;4.20;;
61322;SDS011;47203;48.428;11.974;2023-09-07T22:32:54;5.13;;;4.28;;
61322;SDS011;47203;48.428;11.974;2023-09-07T22:35:00;4.70;;;4.00;;
61322;SDS011;47203;48.428;11.974;2023-09-07T22:37:05;5.35;;;4.18;;
61322;SDS011;47203;48.428;11.974;2023-09-07T22:39:10;4.43;;;3.85;;
61322;SDS011;47203;48.428;11.974;2023-09-07T22:41:16;5.30;;;4.25;;
61322;SDS011;47203;48.428;11.974;2023-09-07T22:43:21;5.93;;;4.45;;
61322;SDS011;47203;48.428;11.974;2023-09-07T22:45:26;5.75;;;4.30;;
61322;SDS011;47203;48.428;11.974;2023-09-07T22:47:33;5.93;;;3.85;;
61322;SDS011;47203;48.428;11.974;2023-09-07T22:49:38;5.35;;;3.97;;
61322;SDS011;47203;48.428;11.974;2023-09-07T22:51:43;5.93;;;3.78;;
61322;SDS011;47203;48.428;11.974;2023-09-07T22:53:46;6.07;;;4.28;;
61322;SDS011;47203;48.428;11.974;2023-09-07T22:55:51;4.45;;;3.95;;
61322;SDS011;47203;48.428;11.974;2023-09-07T22:59:59;4.85;;;4.15;;
61322;SDS011;47203;48.428;11.974;2023-09-07T23:02:04;5.43;;;4.35;;
61322;SDS011;47203;48.428;11.974;2023-09-07T23:04:12;4.72;;;4.07;;
61322;SDS011;47203;48.428;11.974;2023-09-07T23:06:18;6.00;;;3.92;;
61322;SDS011;47203;48.428;11.974;2023-09-07T23:08:23;6.00;;;4.30;;
61322;SDS011;47203;48.428;11.974;2023-09-07T23:10:25;4.85;;;4.03;;
61322;SDS011;47203;48.428;11.974;2023-09-07T23:12:30;4.15;;;3.70;;
61322;SDS011;47203;48.428;11.974;2023-09-07T23:14:36;4.65;;;3.90;;
61322;SDS011;47203;48.428;11.974;2023-09-07T23:16:41;5.95;;;4.50;;
61322;SDS011;47203;48.428;11.974;2023-09-07T23:18:46;5.78;;;4.35;;
61322;SDS011;47203;48.428;11.974;2023-09-07T23:20:52;7.32;;;4.90;;
61322;SDS011;47203;48.428;11.974;2023-09-07T23:22:58;4.55;;;3.88;;
61322;SDS011;47203;48.428;11.974;2023-09-07T23:25:03;4.82;;;4.10;;
61322;SDS011;47203;48.428;11.974;2023-09-07T23:27:09;5.20;;;3.83;;
61322;SDS011;47203;48.428;11.974;2023-09-07T23:29:15;6.68;;;4.20;;
61322;SDS011;47203;48.428;11.974;2023-09-07T23:31:20;4.90;;;4.30;;
61322;SDS011;47203;48.428;11.974;2023-09-07T23:33:26;4.15;;;3.75;;
61322;SDS011;47203;48.428;11.974;2023-09-07T23:35:31;4.57;;;3.85;;
61322;SDS011;47203;48.428;11.974;2023-09-07T23:37:39;6.38;;;4.15;;
61322;SDS011;47203;48.428;11.974;2023-09-07T23:39:44;5.45;;;3.88;;
61322;SDS011;47203;48.428;11.974;2023-09-07T23:41:49;5.70;;;4.68;;
61322;SDS011;47203;48.428;11.974;2023-09-07T23:43:54;6.65;;;4.07;;
61322;SDS011;47203;48.428;11.974;2023-09-07T23:46:00;5.38;;;4.15;;
61322;SDS011;47203;48.428;11.974;2023-09-07T23:48:05;5.90;;;4.28;;
61322;SDS011;47203;48.428;11.974;2023-09-07T23:50:11;6.07;;;4.45;;
61322;SDS011;47203;48.428;11.974;2023-09-07T23:52:16;4.63;;;3.85;;
61322;SDS011;47203;48.428;11.974;2023-09-07T23:54:23;5.68;;;3.80;;
61322;SDS011;47203;48.428;11.974;2023-09-07T23:56:28;4.47;;;3.83;;
61322;SDS011;47203;48.428;11.974;2023-09-07T23:58:34;5.68;;;3.78;;
